createdAt,value
2023-03-03T00:01:28.557Z,0.30
2023-03-03T00:04:13.852Z,0.00
2023-03-03T00:06:59.300Z,1.30
2023-03-03T00:09:44.850Z,0.10
2023-03-03T00:12:31.265Z,0.00
2023-03-03T00:15:20.613Z,-0.10
2023-03-03T00:18:17.798Z,-0.30
2023-03-03T00:21:14.718Z,-0.40
2023-03-03T00:24:18.921Z,-0.10
2023-03-03T00:27:23.519Z,-0.10
2023-03-03T00:30:24.181Z,1.70
2023-03-03T00:33:33.023Z,0.00
2023-03-03T00:36:37.730Z,0.10
2023-03-03T00:39:39.146Z,0.10
2023-03-03T00:42:27.282Z,0.00
2023-03-03T00:45:42.999Z,-0.10
2023-03-03T00:48:41.270Z,-0.10
2023-03-03T00:51:28.138Z,-0.10
2023-03-03T00:54:13.538Z,-0.30
2023-03-03T00:56:59.231Z,-0.20
2023-03-03T00:59:44.913Z,-0.30
2023-03-03T01:02:31.157Z,-0.20
2023-03-03T01:05:18.353Z,-0.30
2023-03-03T01:08:04.523Z,-0.10
2023-03-03T01:10:53.228Z,0.00
2023-03-03T01:13:41.789Z,-0.10
2023-03-03T01:16:27.374Z,-0.10
2023-03-03T01:19:12.820Z,1.60
2023-03-03T01:21:58.881Z,-0.10
2023-03-03T01:24:44.559Z,-0.60
2023-03-03T01:27:31.179Z,0.80
2023-03-03T01:30:16.976Z,-0.50
2023-03-03T01:33:02.567Z,-0.30
2023-03-03T01:35:48.702Z,-0.20
2023-03-03T01:38:38.055Z,-0.20
2023-03-03T01:41:23.296Z,-0.30
2023-03-03T01:44:14.486Z,-0.40
2023-03-03T01:47:27.348Z,-0.10
2023-03-03T01:50:18.881Z,-0.50
2023-03-03T01:53:07.049Z,-0.70
2023-03-03T01:55:53.580Z,-0.50
2023-03-03T01:58:46.304Z,-0.90
2023-03-03T02:01:34.046Z,-0.90
2023-03-03T02:04:19.776Z,-1.00
2023-03-03T02:07:11.660Z,-1.10
2023-03-03T02:10:04.209Z,-1.00
2023-03-03T02:12:57.689Z,-0.80
2023-03-03T02:15:43.209Z,-0.90
2023-03-03T02:18:29.688Z,-0.90
2023-03-03T02:21:19.185Z,-0.80
2023-03-03T02:24:25.610Z,-0.80
2023-03-03T02:27:11.410Z,-0.70
2023-03-03T02:29:56.716Z,-0.70
2023-03-03T02:32:41.919Z,-0.80
2023-03-03T02:35:33.861Z,-0.90
2023-03-03T02:38:43.712Z,-0.90
2023-03-03T02:42:14.376Z,-0.80
2023-03-03T02:44:59.958Z,-0.70
2023-03-03T02:47:52.072Z,-0.90
2023-03-03T02:50:37.692Z,-0.80
2023-03-03T02:53:23.184Z,-0.70
2023-03-03T02:56:09.626Z,-0.70
2023-03-03T02:58:55.678Z,-0.80
2023-03-03T03:01:41.891Z,-0.80
2023-03-03T03:04:28.079Z,-0.80
2023-03-03T03:07:13.285Z,-0.90
2023-03-03T03:09:58.924Z,-0.90
2023-03-03T03:12:44.251Z,0.70
2023-03-03T03:15:29.601Z,-1.00
2023-03-03T03:18:16.489Z,-1.10
2023-03-03T03:21:19.947Z,-1.10
2023-03-03T03:24:05.845Z,-1.10
2023-03-03T03:26:51.190Z,-1.20
2023-03-03T03:29:36.876Z,-1.30
2023-03-03T03:32:22.297Z,-1.20
2023-03-03T03:35:07.629Z,-1.40
2023-03-03T03:37:53.036Z,-1.40
2023-03-03T03:40:38.282Z,-1.50
2023-03-03T03:43:23.896Z,-1.40
2023-03-03T03:46:09.142Z,-1.10
2023-03-03T03:48:54.631Z,-1.30
2023-03-03T03:51:42.010Z,-1.40
2023-03-03T03:54:27.473Z,-1.50
2023-03-03T03:57:12.925Z,-1.40
2023-03-03T03:59:58.257Z,-1.20
2023-03-03T04:02:43.766Z,0.10
2023-03-03T04:05:29.396Z,-1.40
2023-03-03T04:08:14.732Z,0.80
2023-03-03T04:10:59.917Z,-1.20
2023-03-03T04:13:45.407Z,-1.30
2023-03-03T04:16:31.011Z,-1.30
2023-03-03T04:19:16.366Z,0.70
2023-03-03T04:22:01.928Z,-1.50
2023-03-03T04:24:48.697Z,-1.20
2023-03-03T04:27:35.808Z,-1.20
2023-03-03T04:30:21.559Z,-1.40
2023-03-03T04:33:07.149Z,-1.50
2023-03-03T04:35:52.607Z,-1.80
2023-03-03T04:38:38.340Z,-1.70
2023-03-03T04:41:23.652Z,-1.70
2023-03-03T04:44:08.943Z,-1.70
2023-03-03T04:46:54.510Z,-1.50
2023-03-03T04:49:39.658Z,-1.50
2023-03-03T04:52:25.468Z,-1.50
2023-03-03T04:55:11.165Z,-1.40
2023-03-03T04:57:56.661Z,-1.00
2023-03-03T05:00:41.904Z,-1.30
2023-03-03T05:03:27.613Z,-1.40
2023-03-03T05:06:12.871Z,-1.30
2023-03-03T05:08:58.535Z,-1.40
2023-03-03T05:11:44.216Z,-1.50
2023-03-03T05:14:29.612Z,-1.50
2023-03-03T05:17:15.093Z,-1.60
2023-03-03T05:20:00.766Z,-1.80
2023-03-03T05:22:46.248Z,-1.80
2023-03-03T05:25:31.660Z,-1.80
2023-03-03T05:28:17.828Z,-1.70
2023-03-03T05:31:03.052Z,-1.70
2023-03-03T05:33:48.638Z,-1.60
2023-03-03T05:36:34.197Z,-1.60
2023-03-03T05:39:19.681Z,-1.50
2023-03-03T05:42:05.498Z,-1.50
2023-03-03T05:44:50.724Z,-1.50
2023-03-03T05:47:36.437Z,0.00
2023-03-03T05:50:23.109Z,-1.40
2023-03-03T05:53:08.463Z,-1.40
2023-03-03T05:55:54.191Z,-1.60
2023-03-03T05:58:39.372Z,-1.60
2023-03-03T06:01:24.942Z,-1.70
2023-03-03T06:04:10.849Z,-1.60
2023-03-03T06:06:56.429Z,-1.60
2023-03-03T06:09:41.951Z,-1.50
2023-03-03T06:12:27.522Z,-1.40
2023-03-03T06:15:13.295Z,-1.40
2023-03-03T06:17:58.497Z,0.20
2023-03-03T06:20:44.198Z,-1.40
2023-03-03T06:23:29.721Z,-1.40
2023-03-03T06:26:14.943Z,-1.30
2023-03-03T06:29:01.149Z,-1.40
2023-03-03T06:31:46.784Z,-1.20
2023-03-03T06:34:32.420Z,-1.10
2023-03-03T06:37:18.112Z,-1.10
2023-03-03T06:40:05.199Z,-1.00
2023-03-03T06:42:50.520Z,-0.70
2023-03-03T06:45:36.121Z,-0.90
2023-03-03T06:48:21.674Z,-0.80
2023-03-03T06:51:26.829Z,-0.80
2023-03-03T06:54:30.351Z,-0.90
2023-03-03T06:57:33.409Z,-0.80
2023-03-03T07:00:30.730Z,-0.70
2023-03-03T07:03:18.828Z,-0.80
2023-03-03T07:06:21.084Z,-0.60
2023-03-03T07:09:24.146Z,-0.50
2023-03-03T07:12:22.604Z,-0.40
2023-03-03T07:15:20.478Z,-0.30
2023-03-03T07:18:35.453Z,-0.40
2023-03-03T07:21:22.647Z,-0.40
2023-03-03T07:24:14.190Z,-0.30
2023-03-03T07:27:29.247Z,0.00
2023-03-03T07:30:27.610Z,0.10
2023-03-03T07:33:42.946Z,0.20
2023-03-03T07:36:34.671Z,0.50
2023-03-03T07:39:31.215Z,1.20
2023-03-03T07:42:42.194Z,0.80
2023-03-03T07:45:34.979Z,1.00
2023-03-03T07:48:41.964Z,1.10
2023-03-03T07:51:33.263Z,1.50
2023-03-03T07:54:43.519Z,2.60
2023-03-03T07:57:37.367Z,1.40
2023-03-03T08:00:29.249Z,2.30
2023-03-03T08:03:20.816Z,1.30
2023-03-03T08:06:35.642Z,2.20
2023-03-03T08:09:35.622Z,1.40
2023-03-03T08:12:33.907Z,1.60
2023-03-03T08:15:28.319Z,3.80
2023-03-03T08:18:37.531Z,1.60
2023-03-03T08:21:25.155Z,1.60
2023-03-03T08:24:10.457Z,1.60
2023-03-03T08:26:56.078Z,1.50
2023-03-03T08:29:41.443Z,1.30
2023-03-03T08:32:27.033Z,1.40
2023-03-03T08:35:12.428Z,1.40
2023-03-03T08:37:57.953Z,1.60
2023-03-03T08:40:43.652Z,2.90
2023-03-03T08:43:29.747Z,2.50
2023-03-03T08:46:15.019Z,2.30
2023-03-03T08:49:00.668Z,2.30
2023-03-03T08:51:46.198Z,2.10
2023-03-03T08:54:32.635Z,2.60
2023-03-03T08:57:18.848Z,2.50
2023-03-03T09:00:04.326Z,2.70
2023-03-03T09:02:51.019Z,2.60
2023-03-03T09:05:38.763Z,2.70
2023-03-03T09:08:24.414Z,2.50
2023-03-03T09:11:14.299Z,2.50
2023-03-03T09:14:17.943Z,3.00
2023-03-03T09:17:28.628Z,2.80
2023-03-03T09:20:36.227Z,2.90
2023-03-03T09:23:37.700Z,3.20
2023-03-03T09:26:32.202Z,3.40
2023-03-03T09:29:25.716Z,3.40
2023-03-03T09:32:39.257Z,3.30
2023-03-03T09:35:40.409Z,3.10
2023-03-03T09:38:31.616Z,3.20
2023-03-03T09:41:25.559Z,3.30
2023-03-03T09:44:12.162Z,3.60
2023-03-03T09:47:16.637Z,4.20
2023-03-03T09:50:07.625Z,4.70
2023-03-03T09:52:53.752Z,4.50
2023-03-03T09:56:03.957Z,5.90
2023-03-03T09:59:13.108Z,4.90
2023-03-03T10:02:37.712Z,5.10
2023-03-03T10:05:50.850Z,5.30
2023-03-03T10:08:59.195Z,5.20
2023-03-03T10:11:57.739Z,5.40
2023-03-03T10:15:01.949Z,5.70
2023-03-03T10:17:55.035Z,4.90
2023-03-03T10:21:02.322Z,4.90
2023-03-03T10:24:00.316Z,4.90
2023-03-03T10:27:12.334Z,4.90
2023-03-03T10:30:44.073Z,4.90
2023-03-03T10:33:48.620Z,4.80
2023-03-03T10:36:34.271Z,4.80
2023-03-03T10:39:45.735Z,4.80
2023-03-03T10:42:55.238Z,5.00
2023-03-03T10:46:07.544Z,4.90
2023-03-03T10:49:16.878Z,5.00
2023-03-03T10:52:17.183Z,5.30
2023-03-03T10:55:21.411Z,5.80
2023-03-03T10:58:42.197Z,6.10
2023-03-03T11:01:40.638Z,6.20
2023-03-03T11:04:35.120Z,6.90
2023-03-03T11:07:28.990Z,5.90
2023-03-03T11:10:20.357Z,5.80
2023-03-03T11:13:16.008Z,5.80
2023-03-03T11:16:19.715Z,6.10
2023-03-03T11:19:34.492Z,6.20
2023-03-03T11:22:34.156Z,6.30
2023-03-03T11:25:47.951Z,6.40
2023-03-03T11:29:03.553Z,6.60
2023-03-03T11:31:56.747Z,6.90
2023-03-03T11:34:52.776Z,7.90
2023-03-03T11:37:38.167Z,7.00
2023-03-03T11:40:50.918Z,7.00
2023-03-03T11:44:23.817Z,7.10
2023-03-03T11:47:23.315Z,6.80
2023-03-03T11:50:13.632Z,6.90
2023-03-03T11:53:29.336Z,6.90
2023-03-03T11:56:21.091Z,7.30
2023-03-03T11:59:31.854Z,7.70
2023-03-03T12:02:30.411Z,7.70
2023-03-03T12:05:40.815Z,7.40
2023-03-03T12:08:39.879Z,7.40
2023-03-03T12:11:25.340Z,7.60
2023-03-03T12:14:28.627Z,8.70
2023-03-03T12:17:25.799Z,7.70
2023-03-03T12:21:02.688Z,8.50
2023-03-03T12:24:05.712Z,8.60
2023-03-03T12:27:15.998Z,10.30
2023-03-03T12:30:13.618Z,8.60
2023-03-03T12:33:22.414Z,9.00
2023-03-03T12:36:32.416Z,9.50
2023-03-03T12:39:42.368Z,9.20
2023-03-03T12:42:55.043Z,9.20
2023-03-03T12:45:58.512Z,8.80
2023-03-03T12:48:45.716Z,8.60
2023-03-03T12:51:43.436Z,9.70
2023-03-03T12:55:00.746Z,9.80
2023-03-03T12:57:51.855Z,9.60
2023-03-03T13:00:59.434Z,8.80
2023-03-03T13:04:05.696Z,9.00
2023-03-03T13:06:59.220Z,9.40
2023-03-03T13:10:13.234Z,9.90
2023-03-03T13:13:16.734Z,9.30
2023-03-03T13:16:10.130Z,9.50
2023-03-03T13:19:11.760Z,9.70
2023-03-03T13:22:08.553Z,9.50
2023-03-03T13:25:18.567Z,11.10
2023-03-03T13:28:17.868Z,10.00
2023-03-03T13:31:20.715Z,10.50
2023-03-03T13:34:09.026Z,11.10
2023-03-03T13:37:04.381Z,11.60
2023-03-03T13:39:58.917Z,13.10
2023-03-03T13:42:49.878Z,13.30
2023-03-03T13:45:45.509Z,11.80
2023-03-03T13:48:46.325Z,11.50
2023-03-03T13:51:49.370Z,12.80
2023-03-03T13:54:56.348Z,12.20
2023-03-03T13:57:54.963Z,12.40
2023-03-03T14:01:05.558Z,14.10
2023-03-03T14:04:09.951Z,12.90
2023-03-03T14:07:03.267Z,12.70
2023-03-03T14:10:15.177Z,13.50
2023-03-03T14:13:04.490Z,13.30
2023-03-03T14:16:03.774Z,13.20
2023-03-03T14:18:57.670Z,13.20
2023-03-03T14:22:06.543Z,13.90
2023-03-03T14:25:00.298Z,13.20
2023-03-03T14:27:48.898Z,12.80
2023-03-03T14:30:44.836Z,12.60
2023-03-03T14:33:32.274Z,12.90
2023-03-03T14:36:30.171Z,13.20
2023-03-03T14:39:37.842Z,12.20
2023-03-03T14:42:33.794Z,12.20
2023-03-03T14:45:30.238Z,12.20
2023-03-03T14:48:19.117Z,12.20
2023-03-03T14:51:27.224Z,12.60
2023-03-03T14:54:28.320Z,12.10
2023-03-03T14:57:18.029Z,11.70
2023-03-03T15:00:28.591Z,12.70
2023-03-03T15:03:28.024Z,12.30
2023-03-03T15:06:27.011Z,13.70
2023-03-03T15:09:26.852Z,13.00
2023-03-03T15:12:36.588Z,13.60
2023-03-03T15:15:25.410Z,13.00
2023-03-03T15:18:13.453Z,12.60
2023-03-03T15:21:10.397Z,12.40
2023-03-03T15:23:59.193Z,12.30
2023-03-03T15:27:00.127Z,13.70
2023-03-03T15:30:02.145Z,12.10
2023-03-03T15:32:58.078Z,11.70
2023-03-03T15:36:23.219Z,11.50
2023-03-03T15:39:26.517Z,11.70
2023-03-03T15:42:18.450Z,11.60
2023-03-03T15:45:16.022Z,12.80
2023-03-03T15:48:35.958Z,11.00
2023-03-03T15:52:02.177Z,10.80
2023-03-03T15:54:57.323Z,11.50
2023-03-03T15:57:45.595Z,10.30
2023-03-03T16:00:50.168Z,10.10
2023-03-03T16:03:40.774Z,10.20
2023-03-03T16:06:37.233Z,9.40
2023-03-03T16:09:47.442Z,9.20
2023-03-03T16:12:45.767Z,9.00
2023-03-03T16:15:42.968Z,8.70
2023-03-03T16:19:01.866Z,8.60
2023-03-03T16:22:14.254Z,8.40
2023-03-03T16:25:21.885Z,8.30
2023-03-03T16:28:32.878Z,7.80
2023-03-03T16:31:38.347Z,8.60
2023-03-03T16:34:36.303Z,7.80
2023-03-03T16:37:32.757Z,7.70
2023-03-03T16:40:27.000Z,7.60
2023-03-03T16:43:32.557Z,7.80
2023-03-03T16:46:32.991Z,7.70
2023-03-03T16:49:40.310Z,7.60
2023-03-03T16:52:33.866Z,8.20
2023-03-03T16:55:25.293Z,7.50
2023-03-03T16:58:30.222Z,7.60
2023-03-03T17:01:30.925Z,7.60
2023-03-03T17:04:39.628Z,7.50
2023-03-03T17:07:44.739Z,7.50
2023-03-03T17:10:30.066Z,7.30
2023-03-03T17:13:24.032Z,8.60
2023-03-03T17:16:49.854Z,7.00
2023-03-03T17:20:06.569Z,6.80
2023-03-03T17:23:21.143Z,6.80
2023-03-03T17:26:25.239Z,6.80
2023-03-03T17:29:32.864Z,6.80
2023-03-03T17:32:43.087Z,6.70
2023-03-03T17:35:46.008Z,6.60
2023-03-03T17:38:57.627Z,6.60
2023-03-03T17:41:55.090Z,7.00
2023-03-03T17:45:01.504Z,6.50
2023-03-03T17:47:55.861Z,6.40
2023-03-03T17:51:07.756Z,8.10
2023-03-03T17:54:12.871Z,7.90
2023-03-03T17:57:21.334Z,6.30
2023-03-03T18:00:31.606Z,6.30
2023-03-03T18:03:52.768Z,6.30
2023-03-03T18:06:58.566Z,6.20
2023-03-03T18:10:09.796Z,6.40
2023-03-03T18:13:08.020Z,6.20
2023-03-03T18:16:11.186Z,6.00
2023-03-03T18:19:18.010Z,6.00
2023-03-03T18:22:18.780Z,6.00
2023-03-03T18:25:17.885Z,5.80
2023-03-03T18:28:03.903Z,5.80
2023-03-03T18:30:59.311Z,7.40
2023-03-03T18:34:26.603Z,5.70
2023-03-03T18:37:38.840Z,5.80
2023-03-03T18:40:33.322Z,6.30
2023-03-03T18:43:40.494Z,6.00
2023-03-03T18:46:26.043Z,4.50
2023-03-03T18:49:12.999Z,5.90
2023-03-03T18:52:22.526Z,5.80
2023-03-03T18:55:11.094Z,5.90
2023-03-03T18:58:36.431Z,5.90
2023-03-03T19:01:48.626Z,5.90
2023-03-03T19:04:37.426Z,6.40
2023-03-03T19:07:49.149Z,6.00
2023-03-03T19:10:43.693Z,6.00
2023-03-03T19:13:35.103Z,6.00
2023-03-03T19:16:23.812Z,7.00
2023-03-03T19:19:17.732Z,5.80
2023-03-03T19:22:26.358Z,5.70
2023-03-03T19:25:25.791Z,5.60
2023-03-03T19:28:32.097Z,6.70
2023-03-03T19:31:39.710Z,5.70
2023-03-03T19:34:54.571Z,5.60
2023-03-03T19:37:58.331Z,5.50
2023-03-03T19:41:09.795Z,5.40
2023-03-03T19:44:09.982Z,5.30
2023-03-03T19:46:55.154Z,5.40
2023-03-03T19:50:12.560Z,5.20
2023-03-03T19:53:16.965Z,5.10
2023-03-03T19:56:23.780Z,5.20
2023-03-03T19:59:24.147Z,5.10
2023-03-03T20:02:31.556Z,5.00
2023-03-03T20:05:21.392Z,4.80
2023-03-03T20:08:19.588Z,4.70
2023-03-03T20:11:13.125Z,4.40
2023-03-03T20:14:18.889Z,4.10
2023-03-03T20:17:35.745Z,4.30
2023-03-03T20:20:47.045Z,4.10
2023-03-03T20:23:58.152Z,5.80
2023-03-03T20:27:17.748Z,4.00
2023-03-03T20:30:36.162Z,3.90
2023-03-03T20:33:36.785Z,3.80
2023-03-03T20:36:58.084Z,3.70
2023-03-03T20:39:58.019Z,3.60
2023-03-03T20:42:58.060Z,3.70
2023-03-03T20:46:08.275Z,3.70
2023-03-03T20:49:12.865Z,3.60
2023-03-03T20:52:03.796Z,3.70
2023-03-03T20:55:04.165Z,3.70
2023-03-03T20:58:13.876Z,3.40
2023-03-03T21:01:21.458Z,3.20
2023-03-03T21:04:27.276Z,3.10
2023-03-03T21:07:26.521Z,3.10
2023-03-03T21:10:16.628Z,3.00
2023-03-03T21:13:37.201Z,3.00
2023-03-03T21:16:25.601Z,2.90
2023-03-03T21:19:12.949Z,2.90
2023-03-03T21:22:02.110Z,2.60
2023-03-03T21:24:57.577Z,2.90
2023-03-03T21:27:43.031Z,2.80
2023-03-03T21:30:28.765Z,2.80
2023-03-03T21:33:39.997Z,2.90
2023-03-03T21:36:46.583Z,3.00
2023-03-03T21:39:33.218Z,3.00
2023-03-03T21:42:39.884Z,4.10
2023-03-03T21:45:25.922Z,2.80
2023-03-03T21:48:11.237Z,2.80
2023-03-03T21:50:57.021Z,2.60
2023-03-03T21:53:44.241Z,4.00
2023-03-03T21:56:29.733Z,2.80
2023-03-03T21:59:15.361Z,2.90
2023-03-03T22:02:00.748Z,2.90
2023-03-03T22:04:46.392Z,2.80
2023-03-03T22:07:32.119Z,2.90
2023-03-03T22:10:17.823Z,3.10
2023-03-03T22:13:03.043Z,3.00
2023-03-03T22:15:49.122Z,3.10
2023-03-03T22:18:34.397Z,3.20
2023-03-03T22:21:19.593Z,3.10
2023-03-03T22:24:06.694Z,3.20
2023-03-03T22:26:52.229Z,3.30
2023-03-03T22:29:37.503Z,3.40
2023-03-03T22:32:23.032Z,4.30
2023-03-03T22:35:09.099Z,3.60
2023-03-03T22:37:54.671Z,3.40
2023-03-03T22:40:39.928Z,3.40
2023-03-03T22:43:25.848Z,3.40
2023-03-03T22:46:11.815Z,3.30
2023-03-03T22:48:56.942Z,3.80
2023-03-03T22:51:42.235Z,3.90
2023-03-03T22:54:27.627Z,3.60
2023-03-03T22:57:13.306Z,3.60
2023-03-03T23:00:00.113Z,4.40
2023-03-03T23:02:45.314Z,3.60
2023-03-03T23:05:30.930Z,3.60
2023-03-03T23:08:18.624Z,3.50
2023-03-03T23:11:05.076Z,3.50
2023-03-03T23:13:50.582Z,4.30
2023-03-03T23:16:35.921Z,3.80
2023-03-03T23:19:21.585Z,3.60
2023-03-03T23:22:07.042Z,5.30
2023-03-03T23:24:52.882Z,5.10
2023-03-03T23:27:38.303Z,3.70
2023-03-03T23:30:24.002Z,3.70
2023-03-03T23:33:09.734Z,3.80
2023-03-03T23:35:55.074Z,3.50
2023-03-03T23:38:42.965Z,4.50
2023-03-03T23:41:28.905Z,3.50
2023-03-03T23:44:14.412Z,3.40
2023-03-03T23:46:59.740Z,3.50
2023-03-03T23:49:45.509Z,3.40
2023-03-03T23:52:30.796Z,3.50
2023-03-03T23:55:16.589Z,3.40
2023-03-03T23:58:01.819Z,3.60
